Observation data for Seminole on 05/25/2020      Previous  Date       Current Mesonet Observations  Soil Data  Daily Summary Page  Observations in Plain Language
KSM1 250500Z 11013KT 19/10 A2979 RMK A01 T01900095  RH  056%=      5-min Rain = 0
KSM1 250505Z 12012KT 19/10 A2979 RMK A01 T01880096  RH  057%=      5-min Rain = 0
KSM1 250510Z 12011KT 19/10 A2979 RMK A01 T01870098  RH  058%=      5-min Rain = 0
KSM1 250515Z 12012KT 19/10 A298 RMK A01 T01870099  RH  058%=      5-min Rain = 0
KSM1 250520Z 12012KT 19/10 A298 RMK A01 T01870100  RH  059%=      5-min Rain = 0
KSM1 250525Z 12012KT 19/10 A298 RMK A01 T01860100  RH  059%=      5-min Rain = 0
KSM1 250530Z 13012KT 19/10 A298 RMK A01 T01860099  RH  059%=      5-min Rain = 0
KSM1 250535Z 12013KT 19/10 A2981 RMK A01 T01870098  RH  058%=      5-min Rain = 0
KSM1 250540Z 13013KT 19/10 A2981 RMK A01 T01870096  RH  057%=      5-min Rain = 0
KSM1 250545Z 13014KT 19/09 A2981 RMK A01 T01880093  RH  056%=      5-min Rain = 0
KSM1 250550Z 13015KT 19/09 A2981 RMK A01 T01880091  RH  055%=      5-min Rain = 0
KSM1 250555Z 13015G20KT 19/09 A2981 RMK A01 T01890089  RH  054%=      5-min Rain = 0
KSM1 250600Z 13015KT 19/09 A2981 RMK A01 T01890087  RH  053%=      5-min Rain = 0
KSM1 250605Z 13015G21KT 19/09 A2981 RMK A01 T01890087  RH  053%=      5-min Rain = 0
KSM1 250610Z 13016KT 19/09 A2981 RMK A01 T01900085  RH  052%=      5-min Rain = 0
KSM1 250615Z 13015KT 19/08 A2981 RMK A01 T01900084  RH  051%=      5-min Rain = 0
KSM1 250620Z 13014G19KT 19/08 A2982 RMK A01 T01900083  RH  051%=      5-min Rain = 0
KSM1 250625Z 13015KT 19/08 A2982 RMK A01 T01890083  RH  052%=      5-min Rain = 0
KSM1 250630Z 13015KT 19/08 A2982 RMK A01 T01880084  RH  052%=      5-min Rain = 0
KSM1 250635Z 12014KT 19/08 A2983 RMK A01 T01870084  RH  052%=      5-min Rain = 0
KSM1 250640Z 12014KT 19/08 A2983 RMK A01 T01860084  RH  053%=      5-min Rain = 0
KSM1 250645Z 11014KT 19/08 A2984 RMK A01 T01850084  RH  053%=      5-min Rain = 0
KSM1 250650Z 11015KT 18/09 A2984 RMK A01 T01840086  RH  054%=      5-min Rain = 0
KSM1 250655Z 11016KT 18/09 A2984 RMK A01 T01830089  RH  056%=      5-min Rain = 0
KSM1 250700Z 12015G20KT 18/09 A2984 RMK A01 T01810090  RH  057%=      5-min Rain = 0
KSM1 250705Z 13016KT 18/09 A2984 RMK A01 T01810090  RH  057%=      5-min Rain = 0
KSM1 250710Z 12014KT 18/09 A2984 RMK A01 T01800090  RH  057%=      5-min Rain = 0
KSM1 250715Z 12014G19KT 18/09 A2984 RMK A01 T01790090  RH  058%=      5-min Rain = 0
KSM1 250720Z 12013KT 18/09 A2984 RMK A01 T01770091  RH  059%=      5-min Rain = 0
KSM1 250725Z 13012KT 18/09 A2984 RMK A01 T01760092  RH  060%=      5-min Rain = 0
KSM1 250730Z 13011KT 18/09 A2984 RMK A01 T01750093  RH  060%=      5-min Rain = 0
KSM1 250735Z 13010KT 17/09 A2984 RMK A01 T01740093  RH  061%=      5-min Rain = 0
KSM1 250740Z 13010KT 17/09 A2984 RMK A01 T01720094  RH  062%=      5-min Rain = 0
KSM1 250745Z 13011KT 17/10 A2984 RMK A01 T01710096  RH  063%=      5-min Rain = 0
KSM1 250750Z 13011G16KT 17/10 A2984 RMK A01 T01710098  RH  064%=      5-min Rain = 0
KSM1 250755Z 13012KT 17/10 A2984 RMK A01 T01710101  RH  066%=      5-min Rain = 0
KSM1 250800Z 13011KT 17/10 A2983 RMK A01 T01700103  RH  067%=      5-min Rain = 0
KSM1 250805Z 13013G18KT 17/10 A2983 RMK A01 T01690104  RH  068%=      5-min Rain = 0
KSM1 250810Z 13013G19KT 17/10 A2983 RMK A01 T01680104  RH  068%=      5-min Rain = 0
KSM1 250815Z 13014G19KT 17/10 A2983 RMK A01 T01680104  RH  068%=      5-min Rain = 0
KSM1 250820Z 13014KT 17/11 A2983 RMK A01 T01680105  RH  069%=      5-min Rain = 0
KSM1 250825Z 13013KT 17/11 A2983 RMK A01 T01670105  RH  069%=      5-min Rain = 0
KSM1 250830Z 13013KT 17/11 A2983 RMK A01 T01650105  RH  070%=      5-min Rain = 0
KSM1 250835Z 13012KT 16/11 A2983 RMK A01 T01640105  RH  071%=      5-min Rain = 0
KSM1 250840Z 13011KT 16/11 A2983 RMK A01 T01630105  RH  071%=      5-min Rain = 0
KSM1 250845Z 12012KT 16/11 A2983 RMK A01 T01620105  RH  072%=      5-min Rain = 0
KSM1 250850Z 12011KT 16/11 A2983 RMK A01 T01610105  RH  072%=      5-min Rain = 0
KSM1 250855Z 12011KT 16/11 A2983 RMK A01 T01600105  RH  073%=      5-min Rain = 0
KSM1 250900Z 11011KT 16/11 A2984 RMK A01 T01590105  RH  073%=      5-min Rain = 0
KSM1 250905Z 10010KT 16/11 A2984 RMK A01 T01580106  RH  073%=      5-min Rain = 0
KSM1 250910Z 08009KT 16/11 A2985 RMK A01 T01560106  RH  075%=      5-min Rain = 0
KSM1 250915Z 08009KT 15/11 A2985 RMK A01 T01540105  RH  075%=      5-min Rain = 0
KSM1 250920Z 08010KT 15/11 A2985 RMK A01 T01540106  RH  076%=      5-min Rain = 0
KSM1 250925Z 08010KT 15/11 A2985 RMK A01 T01540106  RH  076%=      5-min Rain = 0
KSM1 250930Z 08009KT 15/11 A2984 RMK A01 T01520106  RH  076%=      5-min Rain = 0
KSM1 250935Z 08009KT 15/11 A2985 RMK A01 T01520106  RH  077%=      5-min Rain = 0
KSM1 250940Z 08007KT 15/11 A2984 RMK A01 T01500106  RH  077%=      5-min Rain = 0
KSM1 250945Z 09008KT 15/11 A2984 RMK A01 T01490107  RH  079%=      5-min Rain = 0
KSM1 250950Z 09008KT 15/11 A2985 RMK A01 T01480109  RH  080%=      5-min Rain = 0
KSM1 250955Z 09008KT 15/11 A2985 RMK A01 T01480109  RH  081%=      5-min Rain = 0
KSM1 251000Z 09009KT 15/11 A2984 RMK A01 T01470110  RH  081%=      5-min Rain = 0
KSM1 251005Z 09009KT 15/11 A2984 RMK A01 T01460110  RH  082%=      5-min Rain = 0
KSM1 251010Z 09008KT 15/11 A2984 RMK A01 T01450110  RH  082%=      5-min Rain = 0
KSM1 251015Z 09008KT 15/11 A2984 RMK A01 T01450110  RH  083%=      5-min Rain = 0
KSM1 251020Z 09007KT 14/11 A2984 RMK A01 T01440111  RH  083%=      5-min Rain = 0
KSM1 251025Z 07006KT 15/11 A2985 RMK A01 T01450111  RH  083%=      5-min Rain = 0
KSM1 251030Z 06006KT 15/11 A2985 RMK A01 T01480112  RH  082%=      5-min Rain = 0
KSM1 251035Z 05007KT 15/11 A2986 RMK A01 T01510113  RH  081%=      5-min Rain = 0
KSM1 251040Z 04008KT 15/11 A2986 RMK A01 T01530114  RH  080%=      5-min Rain = 0
KSM1 251045Z 05008KT 15/11 A2985 RMK A01 T01540114  RH  080%=      5-min Rain = 0
KSM1 251050Z 07008KT 16/12 A2985 RMK A01 T01550115  RH  080%=      5-min Rain = 0
KSM1 251055Z 06008KT 16/12 A2986 RMK A01 T01550115  RH  080%=      5-min Rain = 0
KSM1 251100Z 06010KT 16/12 A2986 RMK A01 T01560116  RH  080%=      5-min Rain = 0
KSM1 251105Z 07010KT 16/12 A2985 RMK A01 T01550117  RH  081%=      5-min Rain = 0
KSM1 251110Z 07011KT 16/12 A2985 RMK A01 T01550117  RH  081%=      5-min Rain = 0
KSM1 251115Z 06011KT 16/12 A2985 RMK A01 T01550117  RH  081%=      5-min Rain = 0
KSM1 251120Z 06010KT 16/12 A2986 RMK A01 T01550117  RH  081%=      5-min Rain = 0
KSM1 251125Z 06010KT 16/12 A2986 RMK A01 T01560116  RH  080%=      5-min Rain = 0
KSM1 251130Z 06011KT 16/12 A2986 RMK A01 T01560116  RH  080%=      5-min Rain = 0
KSM1 251135Z 06010KT 16/12 A2987 RMK A01 T01550116  RH  080%=      5-min Rain = 0
KSM1 251140Z 06010KT 16/12 A2987 RMK A01 T01550116  RH  080%=      5-min Rain = 0
KSM1 251145Z 05010KT 15/12 A2987 RMK A01 T01540116  RH  081%=      5-min Rain = 0
KSM1 251150Z 06011KT 15/12 A2988 RMK A01 T01530116  RH  082%=      5-min Rain = 0
KSM1 251155Z 06011KT 15/12 A2988 RMK A01 T01520117  RH  082%=      5-min Rain = 0
KSM1 251200Z 05011KT 15/12 A2988 RMK A01 T01520116  RH  082%=      5-min Rain = 0
KSM1 251205Z 04012KT 15/12 A2988 RMK A01 T01520116  RH  082%=      5-min Rain = 0
KSM1 251210Z 05012KT 15/12 A2988 RMK A01 T01520116  RH  082%=      5-min Rain = 0
KSM1 251215Z 05011KT 15/12 A2987 RMK A01 T01520116  RH  082%=      5-min Rain = 0
KSM1 251220Z 05011KT 15/12 A2987 RMK A01 T01520116  RH  082%=      5-min Rain = 0
KSM1 251225Z 04009KT 15/12 A2988 RMK A01 T01530116  RH  081%=      5-min Rain = 0
KSM1 251230Z 04008KT 15/12 A2988 RMK A01 T01540116  RH  081%=      5-min Rain = 0
KSM1 251235Z 04007KT 15/12 A2989 RMK A01 T01540116  RH  081%=      5-min Rain = 0
KSM1 251240Z 04006KT 16/12 A2989 RMK A01 T01550117  RH  081%=      5-min Rain = 0
KSM1 251245Z 04006KT 16/12 A2989 RMK A01 T01560117  RH  080%=      5-min Rain = 0
KSM1 251250Z 03008KT 16/12 A2989 RMK A01 T01570117  RH  080%=      5-min Rain = 0
KSM1 251255Z 03008KT 16/12 A299 RMK A01 T01570117  RH  080%=      5-min Rain = 0
KSM1 251300Z 02008KT 16/12 A2989 RMK A01 T01590117  RH  079%=      5-min Rain = 0
KSM1 251305Z 02009KT 16/12 A299 RMK A01 T01580116  RH  079%=      5-min Rain = 0
KSM1 251310Z 02009KT 16/12 A299 RMK A01 T01590116  RH  079%=      5-min Rain = 0
KSM1 251315Z 02010KT 16/12 A299 RMK A01 T01580116  RH  079%=      5-min Rain = 0
KSM1 251320Z 01010KT 16/12 A299 RMK A01 T01570115  RH  079%=      5-min Rain = 0
KSM1 251325Z 02009KT 16/12 A299 RMK A01 T01580115  RH  079%=      5-min Rain = 0
KSM1 251330Z 02010KT 16/12 A299 RMK A01 T01590115  RH  078%=      5-min Rain = 0
KSM1 251335Z 01009KT 16/12 A299 RMK A01 T01600115  RH  078%=      5-min Rain = 0
KSM1 251340Z 01010KT 16/12 A2991 RMK A01 T01610115  RH  077%=      5-min Rain = 0
KSM1 251345Z 02011G16KT 16/12 A2991 RMK A01 T01610115  RH  076%=      5-min Rain = 0
KSM1 251350Z 02011KT 16/11 A2991 RMK A01 T01630114  RH  076%=      5-min Rain = 0
KSM1 251355Z 02011KT 16/11 A2991 RMK A01 T01630114  RH  075%=      5-min Rain = 0
KSM1 251400Z 02012KT 16/11 A2991 RMK A01 T01640114  RH  075%=      5-min Rain = 0
KSM1 251405Z 02009G14KT 17/11 A2991 RMK A01 T01660113  RH  074%=      5-min Rain = 0
KSM1 251410Z 02011KT 17/11 A2992 RMK A01 T01670112  RH  073%=      5-min Rain = 0
KSM1 251415Z 01011KT 17/11 A2992 RMK A01 T01690112  RH  072%=      5-min Rain = 0
KSM1 251420Z 02012KT 17/11 A2992 RMK A01 T01710111  RH  070%=      5-min Rain = 0
KSM1 251425Z 02013KT 17/11 A2992 RMK A01 T01710111  RH  070%=      5-min Rain = 0
KSM1 251430Z 02013KT 17/11 A2992 RMK A01 T01730110  RH  069%=      5-min Rain = 0
KSM1 251435Z 02012KT 18/11 A2992 RMK A01 T01750110  RH  068%=      5-min Rain = 0
KSM1 251440Z 03013KT 18/11 A2992 RMK A01 T01770110  RH  067%=      5-min Rain = 0
KSM1 251445Z 02013KT 18/11 A2992 RMK A01 T01780109  RH  066%=      5-min Rain = 0
KSM1 251450Z 02015KT 18/11 A2992 RMK A01 T01790109  RH  066%=      5-min Rain = 0
KSM1 251455Z 02016KT 18/11 A2992 RMK A01 T01800108  RH  065%=      5-min Rain = 0
KSM1 251500Z 02016G21KT 18/11 A2992 RMK A01 T01820106  RH  064%=      5-min Rain = 0
KSM1 251505Z 02016KT 18/11 A2992 RMK A01 T01810105  RH  063%=      5-min Rain = 0
KSM1 251510Z 02017KT 18/10 A2993 RMK A01 T01810101  RH  061%=      5-min Rain = 0
KSM1 251515Z 02019G24KT 18/09 A2993 RMK A01 T01800092  RH  058%=      5-min Rain = 0
KSM1 251520Z 03018G24KT 18/09 A2993 RMK A01 T01780090  RH  058%=      5-min Rain = 0
KSM1 251525Z 03017G22KT 18/09 A2993 RMK A01 T01800090  RH  058%=      5-min Rain = 0
KSM1 251530Z 02019G25KT 18/09 A2994 RMK A01 T01790090  RH  057%=      5-min Rain = 0
KSM1 251535Z 03018G23KT 18/09 A2994 RMK A01 T01770087  RH  057%=      5-min Rain = 0
KSM1 251540Z 03018G24KT 18/09 A2994 RMK A01 T01780085  RH  056%=      5-min Rain = 0
KSM1 251545Z 03019G24KT 18/09 A2994 RMK A01 T01760085  RH  057%=      5-min Rain = 0
KSM1 251550Z 03020KT 18/08 A2994 RMK A01 T01770084  RH  056%=      5-min Rain = 0
KSM1 251555Z 04018G23KT 18/08 A2994 RMK A01 T01760084  RH  057%=      5-min Rain = 0
KSM1 251600Z 04019G24KT 18/08 A2994 RMK A01 T01760084  RH  056%=      5-min Rain = 0
KSM1 251605Z 03017KT 18/08 A2994 RMK A01 T01760083  RH  056%=      5-min Rain = 0
KSM1 251610Z 03017G24KT 18/08 A2994 RMK A01 T01780083  RH  055%=      5-min Rain = 0
KSM1 251615Z 03018KT 18/08 A2995 RMK A01 T01780084  RH  056%=      5-min Rain = 0
KSM1 251620Z 03018G24KT 18/08 A2995 RMK A01 T01780084  RH  056%=      5-min Rain = 0
KSM1 251625Z 03018KT 18/08 A2995 RMK A01 T01770083  RH  056%=      5-min Rain = 0
KSM1 251630Z 03016G22KT 18/08 A2995 RMK A01 T01780084  RH  056%=      5-min Rain = 0
KSM1 251635Z 04018G23KT 18/08 A2995 RMK A01 T01780084  RH  056%=      5-min Rain = 0
KSM1 251640Z 04016G21KT 18/09 A2995 RMK A01 T01770085  RH  056%=      5-min Rain = 0
KSM1 251645Z 04018KT 18/09 A2996 RMK A01 T01770085  RH  056%=      5-min Rain = 0
KSM1 251650Z 03018G23KT 18/09 A2996 RMK A01 T01750085  RH  057%=      5-min Rain = 0
KSM1 251655Z 03018KT 18/09 A2996 RMK A01 T01760085  RH  057%=      5-min Rain = 0
KSM1 251700Z 03018KT 18/09 A2996 RMK A01 T01760085  RH  057%=      5-min Rain = 0
KSM1 251705Z 03018KT 18/09 A2996 RMK A01 T01770085  RH  057%=      5-min Rain = 0
KSM1 251710Z 04017KT 18/09 A2996 RMK A01 T01770085  RH  056%=      5-min Rain = 0
KSM1 251715Z 04016G21KT 18/09 A2996 RMK A01 T01770086  RH  057%=      5-min Rain = 0
KSM1 251720Z 04014G19KT 18/09 A2997 RMK A01 T01780086  RH  057%=      5-min Rain = 0
KSM1 251725Z 05013G18KT 18/09 A2997 RMK A01 T01780087  RH  057%=      5-min Rain = 0
KSM1 251730Z 05015KT 18/09 A2996 RMK A01 T01790087  RH  057%=      5-min Rain = 0
KSM1 251735Z 04015KT 18/09 A2996 RMK A01 T01780087  RH  057%=      5-min Rain = 0
KSM1 251740Z 04015KT 18/09 A2996 RMK A01 T01800087  RH  056%=      5-min Rain = 0
KSM1 251745Z 05016KT 18/09 A2997 RMK A01 T01800087  RH  056%=      5-min Rain = 0
KSM1 251750Z 04016G21KT 18/09 A2997 RMK A01 T01790087  RH  057%=      5-min Rain = 0
KSM1 251755Z 04016G21KT 18/09 A2997 RMK A01 T01790087  RH  056%=      5-min Rain = 0
KSM1 251800Z 05016KT 18/09 A2997 RMK A01 T01780087  RH  057%=      5-min Rain = 0
KSM1 251805Z 04016KT 18/09 A2998 RMK A01 T01790087  RH  057%=      5-min Rain = 0
KSM1 251810Z 04015G20KT 18/09 A2998 RMK A01 T01780087  RH  057%=      5-min Rain = 0
KSM1 251815Z 03015KT 18/09 A2998 RMK A01 T01800089  RH  057%=      5-min Rain = 0
KSM1 251820Z 03013G18KT 18/09 A2998 RMK A01 T01810089  RH  057%=      5-min Rain = 0
KSM1 251825Z 03013G19KT 18/09 A2998 RMK A01 T01830090  RH  056%=      5-min Rain = 0
KSM1 251830Z 03013KT 18/09 A2998 RMK A01 T01830090  RH  056%=      5-min Rain = 0
KSM1 251835Z 04014KT 19/09 A2998 RMK A01 T01850090  RH  055%=      5-min Rain = 0
KSM1 251840Z 04013G18KT 18/09 A2998 RMK A01 T01830090  RH  056%=      5-min Rain = 0
KSM1 251845Z 04012G17KT 18/09 A2998 RMK A01 T01830090  RH  056%=      5-min Rain = 0
KSM1 251850Z 04012KT 18/09 A2998 RMK A01 T01830090  RH  056%=      5-min Rain = 0
KSM1 251855Z 04011KT 18/09 A2998 RMK A01 T01830091  RH  056%=      5-min Rain = 0
KSM1 251900Z 04012KT 18/09 A2998 RMK A01 T01830091  RH  057%=      5-min Rain = 0
KSM1 251905Z 03010KT 18/09 A2998 RMK A01 T01820091  RH  057%=      5-min Rain = 0
KSM1 251910Z 04010G15KT 18/09 A2998 RMK A01 T01830091  RH  057%=      5-min Rain = 0
KSM1 251915Z 03010G16KT 18/09 A2998 RMK A01 T01840091  RH  056%=      5-min Rain = 0
KSM1 251920Z 03010KT 18/09 A2998 RMK A01 T01840090  RH  056%=      5-min Rain = 0
KSM1 251925Z 01011KT 18/09 A2998 RMK A01 T01840090  RH  056%=      5-min Rain = 0
KSM1 251930Z 01011KT 19/09 A2998 RMK A01 T01850090  RH  055%=      5-min Rain = 0
KSM1 251935Z 01011KT 19/09 A2999 RMK A01 T01860089  RH  055%=      5-min Rain = 0
KSM1 251940Z 01010G15KT 19/09 A2998 RMK A01 T01870090  RH  055%=      5-min Rain = 0
KSM1 251945Z 01008KT 19/09 A2998 RMK A01 T01870090  RH  055%=      5-min Rain = 0
KSM1 251950Z 01011KT 19/09 A2998 RMK A01 T01900090  RH  054%=      5-min Rain = 0
KSM1 251955Z 02011KT 19/09 A2998 RMK A01 T01890094  RH  056%=      5-min Rain = 0
KSM1 252000Z 03010G19KT 19/10 A2997 RMK A01 T01860097  RH  058%=      5-min Rain = 0
KSM1 252005Z 02009KT 19/09 A2997 RMK A01 T01900094  RH  055%=      5-min Rain = 0
KSM1 252010Z 02012KT 19/09 A2996 RMK A01 T01940091  RH  053%=      5-min Rain = 0
KSM1 252015Z 03014G19KT 20/09 A2996 RMK A01 T01980090  RH  051%=      5-min Rain = 0
KSM1 252020Z 05014G20KT 20/09 A2995 RMK A01 T02010092  RH  051%=      5-min Rain = 0
KSM1 252025Z 05014G21KT 20/09 A2994 RMK A01 T02030093  RH  050%=      5-min Rain = 0
KSM1 252030Z 05012G17KT 21/09 A2995 RMK A01 T02050092  RH  050%=      5-min Rain = 0
KSM1 252035Z 05014KT 21/09 A2995 RMK A01 T02060092  RH  049%=      5-min Rain = 0
KSM1 252040Z 06014G19KT 21/09 A2995 RMK A01 T02050091  RH  050%=      5-min Rain = 0
KSM1 252045Z 06013G18KT 21/09 A2995 RMK A01 T02050092  RH  050%=      5-min Rain = 0
KSM1 252050Z 05013KT 21/09 A2994 RMK A01 T02060092  RH  049%=      5-min Rain = 0
KSM1 252055Z 04012G18KT 21/09 A2994 RMK A01 T02080092  RH  049%=      5-min Rain = 0
KSM1 252100Z 04013G18KT 21/09 A2994 RMK A01 T02090091  RH  048%=      5-min Rain = 0
KSM1 252105Z 03013G18KT 21/09 A2994 RMK A01 T02100092  RH  048%=      5-min Rain = 0
KSM1 252110Z 03013KT 21/09 A2994 RMK A01 T02100092  RH  048%=      5-min Rain = 0
KSM1 252115Z 02012KT 21/09 A2995 RMK A01 T02120092  RH  048%=      5-min Rain = 0
KSM1 252120Z 02014KT 22/09 A2995 RMK A01 T02150092  RH  047%=      5-min Rain = 0
KSM1 252125Z 03011KT 22/09 A2995 RMK A01 T02160091  RH  046%=      5-min Rain = 0
KSM1 252130Z 02012G17KT 22/09 A2995 RMK A01 T02150090  RH  046%=      5-min Rain = 0
KSM1 252135Z 02012G17KT 22/09 A2995 RMK A01 T02150090  RH  046%=      5-min Rain = 0
KSM1 252140Z 05012KT 22/09 A2995 RMK A01 T02150090  RH  046%=      5-min Rain = 0
KSM1 252145Z 04010KT 21/09 A2995 RMK A01 T02140090  RH  046%=      5-min Rain = 0
KSM1 252150Z 03009KT 21/09 A2995 RMK A01 T02120089  RH  047%=      5-min Rain = 0
KSM1 252155Z 02013G18KT 21/09 A2995 RMK A01 T02090087  RH  047%=      5-min Rain = 0
KSM1 252200Z 02011KT 21/09 A2995 RMK A01 T02090086  RH  047%=      5-min Rain = 0
KSM1 252205Z 03008KT 21/09 A2995 RMK A01 T02090087  RH  047%=      5-min Rain = 0
KSM1 252210Z 03011KT 21/09 A2995 RMK A01 T02090087  RH  047%=      5-min Rain = 0
KSM1 252215Z 02011G16KT 21/09 A2995 RMK A01 T02080085  RH  046%=      5-min Rain = 0
KSM1 252220Z 02011KT 21/09 A2995 RMK A01 T02080085  RH  047%=      5-min Rain = 0
KSM1 252225Z 01012KT 21/08 A2995 RMK A01 T02080084  RH  046%=      5-min Rain = 0
KSM1 252230Z 01011KT 21/08 A2995 RMK A01 T02070083  RH  046%=      5-min Rain = 0
KSM1 252235Z 02011G16KT 21/08 A2995 RMK A01 T02090083  RH  046%=      5-min Rain = 0
KSM1 252240Z 02010G15KT 21/08 A2995 RMK A01 T02100083  RH  045%=      5-min Rain = 0
KSM1 252245Z 03011KT 21/08 A2995 RMK A01 T02120083  RH  045%=      5-min Rain = 0
KSM1 252250Z 03011G16KT 21/08 A2995 RMK A01 T02140083  RH  044%=      5-min Rain = 0
KSM1 252255Z 03011G16KT 22/08 A2995 RMK A01 T02160083  RH  044%=      5-min Rain = 0
KSM1 252300Z 04013KT 22/08 A2995 RMK A01 T02170082  RH  043%=      5-min Rain = 0
KSM1 252305Z 04012G17KT 22/08 A2995 RMK A01 T02180081  RH  043%=      5-min Rain = 0
KSM1 252310Z 03010KT 22/08 A2995 RMK A01 T02210081  RH  042%=      5-min Rain = 0
KSM1 252315Z 04012G17KT 23/08 A2995 RMK A01 T02260080  RH  040%=      5-min Rain = 0
KSM1 252320Z 04013KT 23/08 A2995 RMK A01 T02270079  RH  040%=      5-min Rain = 0
KSM1 252325Z 03012KT 22/08 A2995 RMK A01 T02190079  RH  042%=      5-min Rain = 0
KSM1 252330Z 05012G17KT 22/08 A2994 RMK A01 T02170077  RH  042%=      5-min Rain = 0
KSM1 252335Z 03012G17KT 22/08 A2994 RMK A01 T02160075  RH  041%=      5-min Rain = 0
KSM1 252340Z 04013KT 22/08 A2994 RMK A01 T02160075  RH  041%=      5-min Rain = 0
KSM1 252345Z 04013KT 22/08 A2995 RMK A01 T02180077  RH  041%=      5-min Rain = 0
KSM1 252350Z 04012G18KT 22/08 A2995 RMK A01 T02190078  RH  041%=      5-min Rain = 0
KSM1 252355Z 01012KT 22/08 A2995 RMK A01 T02220078  RH  041%=      5-min Rain = 0
KSM1 260000Z 02012KT 22/08 A2995 RMK A01 T02190079  RH  042%=      5-min Rain = 0
KSM1 260005Z 03012KT 22/08 A2995 RMK A01 T02150079  RH  043%=      5-min Rain = 0
KSM1 260010Z 03011KT 21/08 A2996 RMK A01 T02140079  RH  043%=      5-min Rain = 0
KSM1 260015Z 03013KT 21/08 A2996 RMK A01 T02130079  RH  043%=      5-min Rain = 0
KSM1 260020Z 03013G18KT 21/08 A2996 RMK A01 T02120080  RH  044%=      5-min Rain = 0
KSM1 260025Z 03014G19KT 21/08 A2996 RMK A01 T02110079  RH  044%=      5-min Rain = 0
KSM1 260030Z 03013KT 21/08 A2996 RMK A01 T02100080  RH  044%=      5-min Rain = 0
KSM1 260035Z 03011G16KT 21/08 A2997 RMK A01 T02090080  RH  045%=      5-min Rain = 0
KSM1 260040Z 03012G17KT 21/08 A2997 RMK A01 T02090080  RH  044%=      5-min Rain = 0
KSM1 260045Z 02015G20KT 21/08 A2997 RMK A01 T02080080  RH  045%=      5-min Rain = 0
KSM1 260050Z 01015G20KT 21/08 A2997 RMK A01 T02050081  RH  046%=      5-min Rain = 0
KSM1 260055Z 01015G20KT 20/08 A2998 RMK A01 T02030081  RH  047%=      5-min Rain = 0
KSM1 260100Z 01016KT 20/08 A2998 RMK A01 T02010082  RH  047%=      5-min Rain = 0
KSM1 260105Z 01015G21KT 20/08 A2999 RMK A01 T02000082  RH  048%=      5-min Rain = 0
KSM1 260110Z 02015G20KT 20/08 A2999 RMK A01 T01990083  RH  048%=      5-min Rain = 0
KSM1 260115Z 02014G19KT 20/08 A2999 RMK A01 T01970083  RH  049%=      5-min Rain = 0
KSM1 260120Z 02013G20KT 20/08 A2999 RMK A01 T01960083  RH  049%=      5-min Rain = 0
KSM1 260125Z 02014G19KT 19/08 A30 RMK A01 T01940083  RH  050%=      5-min Rain = 0
KSM1 260130Z 02014KT 19/08 A30 RMK A01 T01920083  RH  051%=      5-min Rain = 0
KSM1 260135Z 01014KT 19/08 A30 RMK A01 T01910083  RH  051%=      5-min Rain = 0
KSM1 260140Z 02012KT 19/08 A30 RMK A01 T01910083  RH  051%=      5-min Rain = 0
KSM1 260145Z 02014KT 19/08 A30 RMK A01 T01910083  RH  051%=      5-min Rain = 0
KSM1 260150Z 02012KT 19/08 A30 RMK A01 T01900084  RH  051%=      5-min Rain = 0
KSM1 260155Z 03013KT 19/08 A3001 RMK A01 T01890083  RH  051%=      5-min Rain = 0
KSM1 260200Z 02011KT 19/08 A3001 RMK A01 T01880082  RH  052%=      5-min Rain = 0
KSM1 260205Z 03012KT 19/08 A3001 RMK A01 T01860082  RH  052%=      5-min Rain = 0
KSM1 260210Z 03012KT 19/08 A3001 RMK A01 T01850082  RH  053%=      5-min Rain = 0
KSM1 260215Z 02012KT 18/08 A3001 RMK A01 T01830082  RH  053%=      5-min Rain = 0
KSM1 260220Z 03012KT 18/08 A3001 RMK A01 T01820083  RH  054%=      5-min Rain = 0
KSM1 260225Z 02009KT 18/08 A3001 RMK A01 T01800082  RH  054%=      5-min Rain = 0
KSM1 260230Z 02009KT 18/08 A3002 RMK A01 T01770084  RH  056%=      5-min Rain = 0
KSM1 260235Z 02010KT 18/09 A3002 RMK A01 T01750086  RH  057%=      5-min Rain = 0
KSM1 260240Z 02011KT 17/09 A3002 RMK A01 T01740087  RH  058%=      5-min Rain = 0
KSM1 260245Z 02009KT 17/09 A3002 RMK A01 T01730087  RH  059%=      5-min Rain = 0
KSM1 260250Z 02009KT 17/09 A3003 RMK A01 T01720088  RH  059%=      5-min Rain = 0
KSM1 260255Z 02009KT 17/09 A3003 RMK A01 T01700088  RH  060%=      5-min Rain = 0
KSM1 260300Z 02009KT 17/09 A3003 RMK A01 T01690088  RH  060%=      5-min Rain = 0
KSM1 260305Z 02009KT 17/09 A3003 RMK A01 T01690088  RH  060%=      5-min Rain = 0
KSM1 260310Z 02009KT 17/09 A3004 RMK A01 T01680088  RH  061%=      5-min Rain = 0
KSM1 260315Z 02009KT 17/09 A3004 RMK A01 T01660088  RH  062%=      5-min Rain = 0
KSM1 260320Z 02009KT 17/09 A3004 RMK A01 T01650088  RH  062%=      5-min Rain = 0
KSM1 260325Z 02009KT 16/09 A3005 RMK A01 T01640088  RH  063%=      5-min Rain = 0
KSM1 260330Z 02008KT 16/09 A3005 RMK A01 T01620088  RH  063%=      5-min Rain = 0
KSM1 260335Z 02008KT 16/09 A3005 RMK A01 T01600088  RH  064%=      5-min Rain = 0
KSM1 260340Z 02009KT 16/09 A3006 RMK A01 T01600088  RH  064%=      5-min Rain = 0
KSM1 260345Z 02008KT 16/09 A3006 RMK A01 T01600088  RH  064%=      5-min Rain = 0
KSM1 260350Z 02008KT 16/09 A3006 RMK A01 T01590089  RH  065%=      5-min Rain = 0
KSM1 260355Z 02008KT 16/09 A3006 RMK A01 T01570089  RH  066%=      5-min Rain = 0
KSM1 260400Z 02008KT 16/09 A3006 RMK A01 T01560089  RH  066%=      5-min Rain = 0
KSM1 260405Z 01007KT 16/09 A3006 RMK A01 T01550088  RH  066%=      5-min Rain = 0
KSM1 260410Z 01007KT 15/09 A3006 RMK A01 T01540089  RH  067%=      5-min Rain = 0
KSM1 260415Z 00007KT 15/09 A3006 RMK A01 T01510088  RH  068%=      5-min Rain = 0
KSM1 260420Z 35006KT 15/09 A3006 RMK A01 T01480088  RH  069%=      5-min Rain = 0
KSM1 260425Z 00006KT 15/09 A3006 RMK A01 T01460088  RH  070%=      5-min Rain = 0
KSM1 260430Z 36006KT 14/09 A3006 RMK A01 T01440087  RH  070%=      5-min Rain = 0
KSM1 260435Z 36005KT 14/09 A3007 RMK A01 T01420086  RH  071%=      5-min Rain = 0
KSM1 260440Z 00005KT 14/09 A3007 RMK A01 T01390085  RH  072%=      5-min Rain = 0
KSM1 260445Z 35005KT 14/09 A3007 RMK A01 T01370085  RH  073%=      5-min Rain = 0
KSM1 260450Z 35007KT 14/09 A3007 RMK A01 T01380086  RH  073%=      5-min Rain = 0
KSM1 260455Z 00007KT 14/09 A3007 RMK A01 T01400088  RH  073%=      5-min Rain = 0

Page generated in 0.1291 seconds.